sensor_id;sensor_type;location;lat;lon;timestamp;P1;durP1;ratioP1;P2;durP2;ratioP2
66593;SDS011;53450;42.584;23.366;2022-11-15T00:02:06;10.97;;;6.77;;
66593;SDS011;53450;42.584;23.366;2022-11-15T00:04:50;11.20;;;6.53;;
66593;SDS011;53450;42.584;23.366;2022-11-15T00:07:34;10.90;;;7.33;;
66593;SDS011;53450;42.584;23.366;2022-11-15T00:10:18;12.27;;;7.27;;
66593;SDS011;53450;42.584;23.366;2022-11-15T00:13:06;15.47;;;9.63;;
66593;SDS011;53450;42.584;23.366;2022-11-15T00:15:52;13.47;;;8.70;;
66593;SDS011;53450;42.584;23.366;2022-11-15T00:18:38;12.87;;;8.33;;
66593;SDS011;53450;42.584;23.366;2022-11-15T00:21:22;11.40;;;8.23;;
66593;SDS011;53450;42.584;23.366;2022-11-15T00:24:06;16.20;;;8.30;;
66593;SDS011;53450;42.584;23.366;2022-11-15T00:26:51;14.20;;;8.73;;
66593;SDS011;53450;42.584;23.366;2022-11-15T00:29:39;14.33;;;8.63;;
66593;SDS011;53450;42.584;23.366;2022-11-15T00:32:30;13.43;;;8.27;;
66593;SDS011;53450;42.584;23.366;2022-11-15T00:35:15;19.33;;;7.93;;
66593;SDS011;53450;42.584;23.366;2022-11-15T00:38:00;12.60;;;8.13;;
66593;SDS011;53450;42.584;23.366;2022-11-15T00:40:45;12.17;;;7.80;;
66593;SDS011;53450;42.584;23.366;2022-11-15T00:43:29;10.90;;;7.17;;
66593;SDS011;53450;42.584;23.366;2022-11-15T00:46:20;10.27;;;6.55;;
66593;SDS011;53450;42.584;23.366;2022-11-15T00:49:04;14.27;;;7.40;;
66593;SDS011;53450;42.584;23.366;2022-11-15T00:51:48;9.43;;;6.87;;
66593;SDS011;53450;42.584;23.366;2022-11-15T00:54:32;10.87;;;7.20;;
66593;SDS011;53450;42.584;23.366;2022-11-15T00:57:16;11.33;;;7.30;;
66593;SDS011;53450;42.584;23.366;2022-11-15T01:00:00;12.90;;;7.30;;
66593;SDS011;53450;42.584;23.366;2022-11-15T01:02:45;14.00;;;8.47;;
66593;SDS011;53450;42.584;23.366;2022-11-15T01:05:29;13.63;;;7.23;;
66593;SDS011;53450;42.584;23.366;2022-11-15T01:08:14;15.20;;;7.60;;
66593;SDS011;53450;42.584;23.366;2022-11-15T01:11:00;12.60;;;8.00;;
66593;SDS011;53450;42.584;23.366;2022-11-15T01:13:46;10.67;;;6.70;;
66593;SDS011;53450;42.584;23.366;2022-11-15T01:16:29;9.87;;;6.57;;
66593;SDS011;53450;42.584;23.366;2022-11-15T01:19:14;12.10;;;7.40;;
66593;SDS011;53450;42.584;23.366;2022-11-15T01:21:58;13.37;;;7.70;;
66593;SDS011;53450;42.584;23.366;2022-11-15T01:24:42;15.57;;;6.97;;
66593;SDS011;53450;42.584;23.366;2022-11-15T01:27:26;10.70;;;6.53;;
66593;SDS011;53450;42.584;23.366;2022-11-15T01:30:11;12.40;;;6.67;;
66593;SDS011;53450;42.584;23.366;2022-11-15T01:32:55;8.93;;;5.77;;
66593;SDS011;53450;42.584;23.366;2022-11-15T01:35:39;12.83;;;6.73;;
66593;SDS011;53450;42.584;23.366;2022-11-15T01:38:24;10.20;;;6.47;;
66593;SDS011;53450;42.584;23.366;2022-11-15T01:41:18;9.67;;;6.10;;
66593;SDS011;53450;42.584;23.366;2022-11-15T01:47:28;10.20;;;6.20;;
66593;SDS011;53450;42.584;23.366;2022-11-15T01:50:16;13.03;;;7.83;;
66593;SDS011;53450;42.584;23.366;2022-11-15T01:53:04;12.40;;;7.53;;
66593;SDS011;53450;42.584;23.366;2022-11-15T01:55:48;16.17;;;7.70;;
66593;SDS011;53450;42.584;23.366;2022-11-15T01:58:33;14.40;;;7.20;;
66593;SDS011;53450;42.584;23.366;2022-11-15T02:01:18;12.43;;;7.10;;
66593;SDS011;53450;42.584;23.366;2022-11-15T02:04:13;13.23;;;6.87;;
66593;SDS011;53450;42.584;23.366;2022-11-15T02:07:04;12.30;;;6.63;;
66593;SDS011;53450;42.584;23.366;2022-11-15T02:09:49;16.67;;;7.00;;
66593;SDS011;53450;42.584;23.366;2022-11-15T02:12:35;14.40;;;6.97;;
66593;SDS011;53450;42.584;23.366;2022-11-15T02:15:20;12.27;;;7.07;;
66593;SDS011;53450;42.584;23.366;2022-11-15T02:24:27;11.53;;;7.57;;
66593;SDS011;53450;42.584;23.366;2022-11-15T02:30:34;9.60;;;7.00;;
66593;SDS011;53450;42.584;23.366;2022-11-15T02:37:07;9.53;;;7.30;;
66593;SDS011;53450;42.584;23.366;2022-11-15T02:43:00;9.83;;;5.90;;
66593;SDS011;53450;42.584;23.366;2022-11-15T02:49:51;13.20;;;7.83;;
66593;SDS011;53450;42.584;23.366;2022-11-15T02:52:37;10.73;;;6.70;;
66593;SDS011;53450;42.584;23.366;2022-11-15T02:55:32;10.33;;;6.63;;
66593;SDS011;53450;42.584;23.366;2022-11-15T03:04:51;17.20;;;9.30;;
66593;SDS011;53450;42.584;23.366;2022-11-15T03:07:48;14.00;;;9.68;;
66593;SDS011;53450;42.584;23.366;2022-11-15T03:10:54;7.20;;;5.00;;
66593;SDS011;53450;42.584;23.366;2022-11-15T03:13:59;10.38;;;6.30;;
66593;SDS011;53450;42.584;23.366;2022-11-15T03:16:55;9.47;;;6.33;;
66593;SDS011;53450;42.584;23.366;2022-11-15T03:22:48;15.17;;;7.70;;
66593;SDS011;53450;42.584;23.366;2022-11-15T03:25:34;14.50;;;8.43;;
66593;SDS011;53450;42.584;23.366;2022-11-15T03:29:11;15.30;;;8.90;;
66593;SDS011;53450;42.584;23.366;2022-11-15T03:32:00;15.50;;;9.10;;
66593;SDS011;53450;42.584;23.366;2022-11-15T03:34:53;17.10;;;10.53;;
66593;SDS011;53450;42.584;23.366;2022-11-15T03:41:05;11.97;;;7.37;;
66593;SDS011;53450;42.584;23.366;2022-11-15T03:43:54;14.20;;;7.27;;
66593;SDS011;53450;42.584;23.366;2022-11-15T03:46:46;10.53;;;6.00;;
66593;SDS011;53450;42.584;23.366;2022-11-15T03:49:33;10.10;;;6.40;;
66593;SDS011;53450;42.584;23.366;2022-11-15T03:52:20;12.80;;;7.37;;
66593;SDS011;53450;42.584;23.366;2022-11-15T03:55:06;11.07;;;7.63;;
66593;SDS011;53450;42.584;23.366;2022-11-15T03:57:53;10.93;;;6.87;;
66593;SDS011;53450;42.584;23.366;2022-11-15T04:00:40;15.77;;;7.07;;
66593;SDS011;53450;42.584;23.366;2022-11-15T04:03:24;12.27;;;7.70;;
66593;SDS011;53450;42.584;23.366;2022-11-15T04:06:09;14.47;;;8.30;;
66593;SDS011;53450;42.584;23.366;2022-11-15T04:09:10;9.23;;;6.33;;
66593;SDS011;53450;42.584;23.366;2022-11-15T04:11:56;49.53;;;22.40;;
66593;SDS011;53450;42.584;23.366;2022-11-15T04:14:41;26.87;;;13.07;;
66593;SDS011;53450;42.584;23.366;2022-11-15T04:17:49;18.17;;;12.37;;
66593;SDS011;53450;42.584;23.366;2022-11-15T04:23:09;19.53;;;13.77;;
66593;SDS011;53450;42.584;23.366;2022-11-15T04:26:17;22.80;;;12.60;;
66593;SDS011;53450;42.584;23.366;2022-11-15T04:29:03;20.70;;;12.40;;
66593;SDS011;53450;42.584;23.366;2022-11-15T04:32:06;14.17;;;10.23;;
66593;SDS011;53450;42.584;23.366;2022-11-15T04:34:50;17.60;;;9.43;;
66593;SDS011;53450;42.584;23.366;2022-11-15T04:37:34;14.00;;;9.13;;
66593;SDS011;53450;42.584;23.366;2022-11-15T04:40:18;10.57;;;6.93;;
66593;SDS011;53450;42.584;23.366;2022-11-15T04:43:03;12.10;;;7.00;;
66593;SDS011;53450;42.584;23.366;2022-11-15T04:45:47;11.03;;;7.07;;
66593;SDS011;53450;42.584;23.366;2022-11-15T04:48:31;21.43;;;12.47;;
66593;SDS011;53450;42.584;23.366;2022-11-15T04:51:16;11.30;;;6.83;;
66593;SDS011;53450;42.584;23.366;2022-11-15T04:54:00;16.47;;;8.63;;
66593;SDS011;53450;42.584;23.366;2022-11-15T04:56:44;20.13;;;9.70;;
66593;SDS011;53450;42.584;23.366;2022-11-15T04:59:28;36.70;;;14.10;;
66593;SDS011;53450;42.584;23.366;2022-11-15T05:02:12;32.93;;;13.33;;
66593;SDS011;53450;42.584;23.366;2022-11-15T05:04:56;23.07;;;11.50;;
66593;SDS011;53450;42.584;23.366;2022-11-15T05:07:40;16.90;;;10.90;;
66593;SDS011;53450;42.584;23.366;2022-11-15T05:10:24;18.23;;;9.70;;
66593;SDS011;53450;42.584;23.366;2022-11-15T05:13:09;13.87;;;9.00;;
66593;SDS011;53450;42.584;23.366;2022-11-15T05:15:53;15.20;;;9.17;;
66593;SDS011;53450;42.584;23.366;2022-11-15T05:18:37;17.87;;;8.60;;
66593;SDS011;53450;42.584;23.366;2022-11-15T05:21:24;10.83;;;7.10;;
66593;SDS011;53450;42.584;23.366;2022-11-15T05:24:09;12.03;;;7.70;;
66593;SDS011;53450;42.584;23.366;2022-11-15T05:26:54;17.40;;;8.43;;
66593;SDS011;53450;42.584;23.366;2022-11-15T05:29:38;13.43;;;9.13;;
66593;SDS011;53450;42.584;23.366;2022-11-15T05:32:22;12.07;;;8.97;;
66593;SDS011;53450;42.584;23.366;2022-11-15T05:35:08;13.10;;;9.47;;
66593;SDS011;53450;42.584;23.366;2022-11-15T05:37:57;20.67;;;10.90;;
66593;SDS011;53450;42.584;23.366;2022-11-15T05:40:41;18.63;;;11.07;;
66593;SDS011;53450;42.584;23.366;2022-11-15T05:43:25;13.10;;;9.53;;
66593;SDS011;53450;42.584;23.366;2022-11-15T05:48:07;14.73;;;10.30;;
66593;SDS011;53450;42.584;23.366;2022-11-15T05:50:52;15.30;;;8.37;;
66593;SDS011;53450;42.584;23.366;2022-11-15T05:53:37;14.23;;;8.90;;
66593;SDS011;53450;42.584;23.366;2022-11-15T05:56:22;16.93;;;8.57;;
66593;SDS011;53450;42.584;23.366;2022-11-15T06:00:28;14.23;;;8.73;;
66593;SDS011;53450;42.584;23.366;2022-11-15T06:03:12;34.27;;;16.37;;
66593;SDS011;53450;42.584;23.366;2022-11-15T06:05:57;38.93;;;15.50;;
66593;SDS011;53450;42.584;23.366;2022-11-15T06:10:47;46.70;;;20.17;;
66593;SDS011;53450;42.584;23.366;2022-11-15T06:13:32;26.97;;;11.40;;
66593;SDS011;53450;42.584;23.366;2022-11-15T06:16:16;41.83;;;14.17;;
66593;SDS011;53450;42.584;23.366;2022-11-15T06:19:00;35.90;;;16.60;;
66593;SDS011;53450;42.584;23.366;2022-11-15T06:21:45;41.57;;;16.43;;
66593;SDS011;53450;42.584;23.366;2022-11-15T06:24:29;34.40;;;19.70;;
66593;SDS011;53450;42.584;23.366;2022-11-15T06:27:13;44.97;;;20.43;;
66593;SDS011;53450;42.584;23.366;2022-11-15T06:29:57;46.43;;;22.83;;
66593;SDS011;53450;42.584;23.366;2022-11-15T06:34:48;64.67;;;26.87;;
66593;SDS011;53450;42.584;23.366;2022-11-15T06:37:33;46.93;;;25.27;;
66593;SDS011;53450;42.584;23.366;2022-11-15T06:40:17;39.93;;;22.10;;
66593;SDS011;53450;42.584;23.366;2022-11-15T06:43:01;55.73;;;22.00;;
66593;SDS011;53450;42.584;23.366;2022-11-15T06:45:46;34.97;;;18.90;;
66593;SDS011;53450;42.584;23.366;2022-11-15T06:48:30;42.83;;;20.07;;
66593;SDS011;53450;42.584;23.366;2022-11-15T06:51:15;40.63;;;17.83;;
66593;SDS011;53450;42.584;23.366;2022-11-15T06:54:00;24.40;;;14.90;;
66593;SDS011;53450;42.584;23.366;2022-11-15T06:56:44;33.07;;;15.57;;
66593;SDS011;53450;42.584;23.366;2022-11-15T07:01:25;25.90;;;12.97;;
66593;SDS011;53450;42.584;23.366;2022-11-15T07:04:16;22.17;;;11.90;;
66593;SDS011;53450;42.584;23.366;2022-11-15T07:07:00;26.23;;;11.67;;
66593;SDS011;53450;42.584;23.366;2022-11-15T07:09:44;29.53;;;12.90;;
66593;SDS011;53450;42.584;23.366;2022-11-15T07:12:28;37.37;;;13.93;;
66593;SDS011;53450;42.584;23.366;2022-11-15T07:15:12;36.83;;;14.23;;
66593;SDS011;53450;42.584;23.366;2022-11-15T07:19:08;22.37;;;11.30;;
66593;SDS011;53450;42.584;23.366;2022-11-15T07:21:52;20.13;;;11.13;;
66593;SDS011;53450;42.584;23.366;2022-11-15T07:24:43;15.00;;;9.53;;
66593;SDS011;53450;42.584;23.366;2022-11-15T07:27:34;21.17;;;11.00;;
66593;SDS011;53450;42.584;23.366;2022-11-15T07:30:18;23.90;;;11.30;;
66593;SDS011;53450;42.584;23.366;2022-11-15T07:33:02;14.97;;;9.03;;
66593;SDS011;53450;42.584;23.366;2022-11-15T07:35:47;17.23;;;10.10;;
66593;SDS011;53450;42.584;23.366;2022-11-15T07:38:34;15.97;;;9.00;;
66593;SDS011;53450;42.584;23.366;2022-11-15T07:41:19;16.17;;;9.70;;
66593;SDS011;53450;42.584;23.366;2022-11-15T07:44:03;22.37;;;10.23;;
66593;SDS011;53450;42.584;23.366;2022-11-15T07:46:54;15.40;;;8.17;;
66593;SDS011;53450;42.584;23.366;2022-11-15T07:49:45;15.87;;;8.87;;
66593;SDS011;53450;42.584;23.366;2022-11-15T07:52:29;18.77;;;10.80;;
66593;SDS011;53450;42.584;23.366;2022-11-15T07:55:13;21.30;;;12.07;;
66593;SDS011;53450;42.584;23.366;2022-11-15T07:58:05;24.30;;;14.27;;
66593;SDS011;53450;42.584;23.366;2022-11-15T08:00:51;28.08;;;14.20;;
66593;SDS011;53450;42.584;23.366;2022-11-15T08:03:36;26.00;;;14.07;;
66593;SDS011;53450;42.584;23.366;2022-11-15T08:06:21;24.15;;;13.65;;
66593;SDS011;53450;42.584;23.366;2022-11-15T08:11:08;22.58;;;13.45;;
66593;SDS011;53450;42.584;23.366;2022-11-15T08:13:52;27.65;;;15.30;;
66593;SDS011;53450;42.584;23.366;2022-11-15T08:16:36;23.57;;;14.07;;
66593;SDS011;53450;42.584;23.366;2022-11-15T08:19:20;28.27;;;14.63;;
66593;SDS011;53450;42.584;23.366;2022-11-15T08:22:04;31.52;;;15.93;;
66593;SDS011;53450;42.584;23.366;2022-11-15T08:24:48;24.85;;;14.77;;
66593;SDS011;53450;42.584;23.366;2022-11-15T08:27:32;25.83;;;14.00;;
66593;SDS011;53450;42.584;23.366;2022-11-15T08:30:16;37.85;;;14.13;;
66593;SDS011;53450;42.584;23.366;2022-11-15T08:33:00;31.73;;;15.57;;
66593;SDS011;53450;42.584;23.366;2022-11-15T08:35:44;29.08;;;16.30;;
66593;SDS011;53450;42.584;23.366;2022-11-15T08:38:29;36.20;;;20.20;;
66593;SDS011;53450;42.584;23.366;2022-11-15T08:41:20;47.08;;;23.27;;
66593;SDS011;53450;42.584;23.366;2022-11-15T08:44:11;41.65;;;22.77;;
66593;SDS011;53450;42.584;23.366;2022-11-15T08:46:55;42.88;;;22.13;;
66593;SDS011;53450;42.584;23.366;2022-11-15T08:49:39;41.00;;;20.67;;
66593;SDS011;53450;42.584;23.366;2022-11-15T08:52:23;50.45;;;25.50;;
66593;SDS011;53450;42.584;23.366;2022-11-15T08:55:07;52.88;;;26.90;;
66593;SDS011;53450;42.584;23.366;2022-11-15T08:57:51;45.65;;;24.50;;
66593;SDS011;53450;42.584;23.366;2022-11-15T09:00:35;48.78;;;25.35;;
66593;SDS011;53450;42.584;23.366;2022-11-15T09:03:19;48.63;;;23.35;;
66593;SDS011;53450;42.584;23.366;2022-11-15T09:06:04;49.42;;;25.05;;
66593;SDS011;53450;42.584;23.366;2022-11-15T09:08:48;48.88;;;23.30;;
66593;SDS011;53450;42.584;23.366;2022-11-15T09:11:32;47.88;;;25.75;;
66593;SDS011;53450;42.584;23.366;2022-11-15T09:14:16;45.70;;;24.70;;
66593;SDS011;53450;42.584;23.366;2022-11-15T09:17:00;46.50;;;21.90;;
66593;SDS011;53450;42.584;23.366;2022-11-15T09:19:45;47.28;;;22.88;;
66593;SDS011;53450;42.584;23.366;2022-11-15T09:22:36;41.97;;;18.90;;
66593;SDS011;53450;42.584;23.366;2022-11-15T09:25:22;35.33;;;19.27;;
66593;SDS011;53450;42.584;23.366;2022-11-15T09:30:24;40.88;;;18.10;;
66593;SDS011;53450;42.584;23.366;2022-11-15T09:33:09;38.42;;;20.20;;
66593;SDS011;53450;42.584;23.366;2022-11-15T09:36:00;38.67;;;18.40;;
66593;SDS011;53450;42.584;23.366;2022-11-15T09:38:46;45.60;;;22.25;;
66593;SDS011;53450;42.584;23.366;2022-11-15T09:53:18;56.03;;;26.30;;
66593;SDS011;53450;42.584;23.366;2022-11-15T09:56:03;51.42;;;23.38;;
66593;SDS011;53450;42.584;23.366;2022-11-15T09:58:50;51.03;;;24.80;;
66593;SDS011;53450;42.584;23.366;2022-11-15T10:01:45;52.65;;;24.00;;
66593;SDS011;53450;42.584;23.366;2022-11-15T10:04:26;47.53;;;24.35;;
66593;SDS011;53450;42.584;23.366;2022-11-15T10:06:59;61.17;;;26.77;;
66593;SDS011;53450;42.584;23.366;2022-11-15T10:09:33;67.63;;;29.38;;
66593;SDS011;53450;42.584;23.366;2022-11-15T10:12:07;69.22;;;33.65;;
66593;SDS011;53450;42.584;23.366;2022-11-15T10:14:34;72.05;;;32.78;;
66593;SDS011;53450;42.584;23.366;2022-11-15T10:20:23;64.00;;;30.75;;
66593;SDS011;53450;42.584;23.366;2022-11-15T10:23:11;72.18;;;32.28;;
66593;SDS011;53450;42.584;23.366;2022-11-15T10:26:04;75.60;;;34.53;;
66593;SDS011;53450;42.584;23.366;2022-11-15T10:30:56;59.60;;;26.05;;
66593;SDS011;53450;42.584;23.366;2022-11-15T10:33:48;53.03;;;26.15;;
66593;SDS011;53450;42.584;23.366;2022-11-15T10:36:19;43.85;;;18.25;;
66593;SDS011;53450;42.584;23.366;2022-11-15T10:38:56;39.22;;;18.92;;
66593;SDS011;53450;42.584;23.366;2022-11-15T10:42:27;35.28;;;19.30;;
66593;SDS011;53450;42.584;23.366;2022-11-15T10:45:34;32.25;;;16.20;;
66593;SDS011;53450;42.584;23.366;2022-11-15T10:50:42;48.10;;;20.33;;
66593;SDS011;53450;42.584;23.366;2022-11-15T10:53:31;35.92;;;17.15;;
66593;SDS011;53450;42.584;23.366;2022-11-15T10:56:11;37.83;;;17.10;;
66593;SDS011;53450;42.584;23.366;2022-11-15T10:58:44;34.35;;;15.70;;
66593;SDS011;53450;42.584;23.366;2022-11-15T11:01:17;29.92;;;15.63;;
66593;SDS011;53450;42.584;23.366;2022-11-15T11:03:57;33.33;;;17.52;;
66593;SDS011;53450;42.584;23.366;2022-11-15T11:06:24;34.95;;;18.33;;
66593;SDS011;53450;42.584;23.366;2022-11-15T11:09:00;35.17;;;18.83;;
66593;SDS011;53450;42.584;23.366;2022-11-15T11:11:49;39.20;;;21.77;;
66593;SDS011;53450;42.584;23.366;2022-11-15T11:14:20;40.40;;;18.25;;
66593;SDS011;53450;42.584;23.366;2022-11-15T11:16:54;49.13;;;20.43;;
66593;SDS011;53450;42.584;23.366;2022-11-15T11:20:00;31.63;;;14.70;;
66593;SDS011;53450;42.584;23.366;2022-11-15T11:25:34;36.80;;;17.95;;
66593;SDS011;53450;42.584;23.366;2022-11-15T11:34:19;44.53;;;19.30;;
66593;SDS011;53450;42.584;23.366;2022-11-15T11:40:16;42.08;;;21.75;;
66593;SDS011;53450;42.584;23.366;2022-11-15T11:42:58;41.55;;;23.38;;
66593;SDS011;53450;42.584;23.366;2022-11-15T11:46:05;36.53;;;18.55;;
66593;SDS011;53450;42.584;23.366;2022-11-15T11:49:37;48.35;;;22.10;;
66593;SDS011;53450;42.584;23.366;2022-11-15T11:51:45;58.20;;;30.27;;
66593;SDS011;53450;42.584;23.366;2022-11-15T11:57:51;50.05;;;23.35;;
66593;SDS011;53450;42.584;23.366;2022-11-15T12:00:12;53.03;;;26.45;;
66593;SDS011;53450;42.584;23.366;2022-11-15T12:02:41;45.20;;;23.33;;
66593;SDS011;53450;42.584;23.366;2022-11-15T12:05:16;52.75;;;28.05;;
66593;SDS011;53450;42.584;23.366;2022-11-15T12:07:48;61.22;;;29.65;;
66593;SDS011;53450;42.584;23.366;2022-11-15T12:10:22;42.75;;;24.33;;
66593;SDS011;53450;42.584;23.366;2022-11-15T12:19:11;46.88;;;23.70;;
66593;SDS011;53450;42.584;23.366;2022-11-15T12:25:56;58.58;;;28.13;;
66593;SDS011;53450;42.584;23.366;2022-11-15T12:41:16;69.65;;;28.17;;
66593;SDS011;53450;42.584;23.366;2022-11-15T12:50:58;56.97;;;29.73;;
66593;SDS011;53450;42.584;23.366;2022-11-15T12:54:02;61.65;;;31.17;;
66593;SDS011;53450;42.584;23.366;2022-11-15T12:57:31;50.72;;;28.35;;
66593;SDS011;53450;42.584;23.366;2022-11-15T13:03:21;52.17;;;27.48;;
66593;SDS011;53450;42.584;23.366;2022-11-15T13:05:55;46.95;;;24.20;;
66593;SDS011;53450;42.584;23.366;2022-11-15T13:08:46;58.33;;;27.02;;
66593;SDS011;53450;42.584;23.366;2022-11-15T13:22:18;60.30;;;27.33;;
66593;SDS011;53450;42.584;23.366;2022-11-15T13:25:03;44.95;;;24.33;;
66593;SDS011;53450;42.584;23.366;2022-11-15T13:27:29;48.75;;;25.85;;
66593;SDS011;53450;42.584;23.366;2022-11-15T13:29:56;53.72;;;26.63;;
66593;SDS011;53450;42.584;23.366;2022-11-15T13:32:21;48.72;;;26.38;;
66593;SDS011;53450;42.584;23.366;2022-11-15T13:34:48;46.88;;;26.15;;
66593;SDS011;53450;42.584;23.366;2022-11-15T13:39:46;53.42;;;28.08;;
66593;SDS011;53450;42.584;23.366;2022-11-15T13:42:17;53.53;;;22.65;;
66593;SDS011;53450;42.584;23.366;2022-11-15T13:45:11;69.65;;;32.25;;
66593;SDS011;53450;42.584;23.366;2022-11-15T13:47:40;59.08;;;26.73;;
66593;SDS011;53450;42.584;23.366;2022-11-15T14:07:56;67.03;;;29.70;;
66593;SDS011;53450;42.584;23.366;2022-11-15T14:10:43;72.63;;;31.17;;
66593;SDS011;53450;42.584;23.366;2022-11-15T14:20:01;75.57;;;26.02;;
66593;SDS011;53450;42.584;23.366;2022-11-15T14:22:53;56.90;;;26.20;;
66593;SDS011;53450;42.584;23.366;2022-11-15T14:25:31;47.35;;;20.80;;
66593;SDS011;53450;42.584;23.366;2022-11-15T14:28:33;55.95;;;21.15;;
66593;SDS011;53450;42.584;23.366;2022-11-15T14:31:11;51.10;;;20.92;;
66593;SDS011;53450;42.584;23.366;2022-11-15T14:34:08;58.03;;;23.80;;
66593;SDS011;53450;42.584;23.366;2022-11-15T14:37:27;50.58;;;20.85;;
66593;SDS011;53450;42.584;23.366;2022-11-15T14:40:27;92.68;;;29.55;;
66593;SDS011;53450;42.584;23.366;2022-11-15T14:45:00;86.93;;;32.00;;
66593;SDS011;53450;42.584;23.366;2022-11-15T14:47:31;83.45;;;35.45;;
66593;SDS011;53450;42.584;23.366;2022-11-15T14:50:20;103.55;;;43.00;;
66593;SDS011;53450;42.584;23.366;2022-11-15T14:53:01;141.30;;;49.10;;
66593;SDS011;53450;42.584;23.366;2022-11-15T14:55:31;141.07;;;56.58;;
66593;SDS011;53450;42.584;23.366;2022-11-15T14:58:31;166.68;;;63.70;;
66593;SDS011;53450;42.584;23.366;2022-11-15T15:01:28;261.83;;;95.95;;
66593;SDS011;53450;42.584;23.366;2022-11-15T15:04:26;301.33;;;101.47;;
66593;SDS011;53450;42.584;23.366;2022-11-15T15:10:12;258.73;;;85.13;;
66593;SDS011;53450;42.584;23.366;2022-11-15T15:12:59;270.45;;;96.35;;
66593;SDS011;53450;42.584;23.366;2022-11-15T15:15:51;200.48;;;73.80;;
66593;SDS011;53450;42.584;23.366;2022-11-15T15:18:17;202.48;;;76.00;;
66593;SDS011;53450;42.584;23.366;2022-11-15T15:20:44;148.55;;;56.67;;
66593;SDS011;53450;42.584;23.366;2022-11-15T15:23:16;137.07;;;53.80;;
66593;SDS011;53450;42.584;23.366;2022-11-15T15:25:43;156.00;;;59.15;;
66593;SDS011;53450;42.584;23.366;2022-11-15T15:28:10;144.13;;;60.85;;
66593;SDS011;53450;42.584;23.366;2022-11-15T15:30:37;148.15;;;57.55;;
66593;SDS011;53450;42.584;23.366;2022-11-15T15:33:02;166.50;;;63.38;;
66593;SDS011;53450;42.584;23.366;2022-11-15T15:35:29;203.73;;;74.10;;
66593;SDS011;53450;42.584;23.366;2022-11-15T15:37:56;245.65;;;82.78;;
66593;SDS011;53450;42.584;23.366;2022-11-15T15:40:47;228.85;;;81.45;;
66593;SDS011;53450;42.584;23.366;2022-11-15T15:43:12;206.23;;;78.43;;
66593;SDS011;53450;42.584;23.366;2022-11-15T15:45:38;237.77;;;81.33;;
66593;SDS011;53450;42.584;23.366;2022-11-15T15:48:16;207.65;;;67.10;;
66593;SDS011;53450;42.584;23.366;2022-11-15T15:50:42;294.37;;;92.93;;
66593;SDS011;53450;42.584;23.366;2022-11-15T15:53:08;305.27;;;99.20;;
66593;SDS011;53450;42.584;23.366;2022-11-15T15:55:38;334.40;;;108.33;;
66593;SDS011;53450;42.584;23.366;2022-11-15T15:58:04;317.67;;;112.60;;
66593;SDS011;53450;42.584;23.366;2022-11-15T16:00:31;313.17;;;116.20;;
66593;SDS011;53450;42.584;23.366;2022-11-15T16:02:59;339.03;;;117.70;;
66593;SDS011;53450;42.584;23.366;2022-11-15T16:05:25;332.67;;;118.70;;
66593;SDS011;53450;42.584;23.366;2022-11-15T16:07:51;300.77;;;91.90;;
66593;SDS011;53450;42.584;23.366;2022-11-15T16:12:53;287.50;;;82.87;;
66593;SDS011;53450;42.584;23.366;2022-11-15T16:15:20;253.10;;;75.23;;
66593;SDS011;53450;42.584;23.366;2022-11-15T16:17:48;174.97;;;63.90;;
66593;SDS011;53450;42.584;23.366;2022-11-15T16:20:24;114.07;;;50.27;;
66593;SDS011;53450;42.584;23.366;2022-11-15T16:23:01;99.60;;;44.03;;
66593;SDS011;53450;42.584;23.366;2022-11-15T16:28:17;96.47;;;43.33;;
66593;SDS011;53450;42.584;23.366;2022-11-15T16:30:43;109.73;;;46.53;;
66593;SDS011;53450;42.584;23.366;2022-11-15T16:33:08;127.10;;;50.43;;
66593;SDS011;53450;42.584;23.366;2022-11-15T16:35:34;159.83;;;56.60;;
66593;SDS011;53450;42.584;23.366;2022-11-15T16:38:00;161.07;;;60.40;;
66593;SDS011;53450;42.584;23.366;2022-11-15T16:40:30;174.93;;;57.55;;
66593;SDS011;53450;42.584;23.366;2022-11-15T16:42:58;165.02;;;52.80;;
66593;SDS011;53450;42.584;23.366;2022-11-15T16:46:43;83.33;;;33.40;;
66593;SDS011;53450;42.584;23.366;2022-11-15T16:49:12;147.50;;;51.17;;
66593;SDS011;53450;42.584;23.366;2022-11-15T16:51:39;113.63;;;44.30;;
66593;SDS011;53450;42.584;23.366;2022-11-15T16:54:05;153.80;;;58.97;;
66593;SDS011;53450;42.584;23.366;2022-11-15T16:56:32;173.83;;;66.37;;
66593;SDS011;53450;42.584;23.366;2022-11-15T16:58:58;124.70;;;54.10;;
66593;SDS011;53450;42.584;23.366;2022-11-15T17:01:29;526.87;;;213.33;;
66593;SDS011;53450;42.584;23.366;2022-11-15T17:03:56;403.83;;;147.65;;
66593;SDS011;53450;42.584;23.366;2022-11-15T17:06:23;310.27;;;112.57;;
66593;SDS011;53450;42.584;23.366;2022-11-15T17:08:49;310.23;;;123.50;;
66593;SDS011;53450;42.584;23.366;2022-11-15T17:11:16;301.33;;;123.33;;
66593;SDS011;53450;42.584;23.366;2022-11-15T17:13:45;318.83;;;131.83;;
66593;SDS011;53450;42.584;23.366;2022-11-15T17:16:12;389.03;;;155.57;;
66593;SDS011;53450;42.584;23.366;2022-11-15T17:18:39;317.47;;;129.50;;
66593;SDS011;53450;42.584;23.366;2022-11-15T17:21:09;259.77;;;110.13;;
66593;SDS011;53450;42.584;23.366;2022-11-15T17:23:38;202.13;;;82.17;;
66593;SDS011;53450;42.584;23.366;2022-11-15T17:26:04;144.50;;;60.33;;
66593;SDS011;53450;42.584;23.366;2022-11-15T17:28:31;120.23;;;45.83;;
66593;SDS011;53450;42.584;23.366;2022-11-15T17:30:57;149.07;;;56.03;;
66593;SDS011;53450;42.584;23.366;2022-11-15T17:33:23;127.40;;;52.33;;
66593;SDS011;53450;42.584;23.366;2022-11-15T17:35:56;104.57;;;41.27;;
66593;SDS011;53450;42.584;23.366;2022-11-15T17:38:22;98.47;;;43.53;;
66593;SDS011;53450;42.584;23.366;2022-11-15T17:40:48;117.27;;;46.63;;
66593;SDS011;53450;42.584;23.366;2022-11-15T17:43:32;108.33;;;45.00;;
66593;SDS011;53450;42.584;23.366;2022-11-15T17:45:58;84.30;;;37.40;;
66593;SDS011;53450;42.584;23.366;2022-11-15T17:48:24;103.30;;;39.17;;
66593;SDS011;53450;42.584;23.366;2022-11-15T17:51:01;103.57;;;49.17;;
66593;SDS011;53450;42.584;23.366;2022-11-15T17:53:34;157.37;;;68.03;;
66593;SDS011;53450;42.584;23.366;2022-11-15T17:56:07;112.13;;;50.63;;
66593;SDS011;53450;42.584;23.366;2022-11-15T17:58:35;152.57;;;63.17;;
66593;SDS011;53450;42.584;23.366;2022-11-15T18:01:05;183.60;;;76.30;;
66593;SDS011;53450;42.584;23.366;2022-11-15T18:03:50;190.30;;;81.20;;
66593;SDS011;53450;42.584;23.366;2022-11-15T18:06:16;225.60;;;88.13;;
66593;SDS011;53450;42.584;23.366;2022-11-15T18:08:43;370.10;;;135.83;;
66593;SDS011;53450;42.584;23.366;2022-11-15T18:14:07;228.63;;;83.53;;
66593;SDS011;53450;42.584;23.366;2022-11-15T18:16:37;218.63;;;82.68;;
66593;SDS011;53450;42.584;23.366;2022-11-15T18:19:04;221.30;;;79.57;;
66593;SDS011;53450;42.584;23.366;2022-11-15T18:21:37;199.10;;;67.17;;
66593;SDS011;53450;42.584;23.366;2022-11-15T18:24:23;172.60;;;64.20;;
66593;SDS011;53450;42.584;23.366;2022-11-15T18:26:49;150.30;;;54.83;;
66593;SDS011;53450;42.584;23.366;2022-11-15T18:29:15;105.67;;;42.67;;